sensor_id;sensor_type;location;lat;lon;timestamp;pressure;altitude;pressure_sealevel;temperature;humidity
64792;BME280;51226;47.504;19.074;2023-07-20T00:02:42;99503.28;;;26.32;51.86
64792;BME280;51226;47.504;19.074;2023-07-20T00:05:45;99505.41;;;26.24;52.25
64792;BME280;51226;47.504;19.074;2023-07-20T00:08:48;99488.75;;;26.17;52.47
64792;BME280;51226;47.504;19.074;2023-07-20T00:11:52;99488.69;;;26.19;52.05
64792;BME280;51226;47.504;19.074;2023-07-20T00:14:55;99494.97;;;26.18;52.16
64792;BME280;51226;47.504;19.074;2023-07-20T00:17:58;99501.53;;;26.09;52.50
64792;BME280;51226;47.504;19.074;2023-07-20T00:21:01;99502.66;;;26.03;52.74
64792;BME280;51226;47.504;19.074;2023-07-20T00:24:06;99494.78;;;26.00;52.88
64792;BME280;51226;47.504;19.074;2023-07-20T00:27:09;99489.44;;;26.00;52.83
64792;BME280;51226;47.504;19.074;2023-07-20T00:30:12;99485.84;;;26.01;52.75
64792;BME280;51226;47.504;19.074;2023-07-20T00:33:16;99486.69;;;26.02;52.76
64792;BME280;51226;47.504;19.074;2023-07-20T00:36:20;99492.31;;;25.94;53.01
64792;BME280;51226;47.504;19.074;2023-07-20T00:39:23;99492.44;;;25.91;52.98
64792;BME280;51226;47.504;19.074;2023-07-20T00:42:27;99504.16;;;25.87;52.87
64792;BME280;51226;47.504;19.074;2023-07-20T00:45:30;99500.69;;;25.85;52.89
64792;BME280;51226;47.504;19.074;2023-07-20T00:48:34;99503.31;;;25.86;52.91
64792;BME280;51226;47.504;19.074;2023-07-20T00:51:37;99499.06;;;25.81;52.80
64792;BME280;51226;47.504;19.074;2023-07-20T00:54:41;99490.13;;;25.82;52.69
64792;BME280;51226;47.504;19.074;2023-07-20T00:57:44;99486.03;;;25.73;53.10
64792;BME280;51226;47.504;19.074;2023-07-20T01:00:47;99483.47;;;25.70;53.24
64792;BME280;51226;47.504;19.074;2023-07-20T01:03:50;99472.72;;;25.95;52.24
64792;BME280;51226;47.504;19.074;2023-07-20T01:07:00;99469.00;;;25.76;52.80
64792;BME280;51226;47.504;19.074;2023-07-20T01:13:27;99463.12;;;25.66;53.17
64792;BME280;51226;47.504;19.074;2023-07-20T01:16:30;99451.59;;;25.65;53.29
64792;BME280;51226;47.504;19.074;2023-07-20T01:19:33;99450.72;;;25.65;53.17
64792;BME280;51226;47.504;19.074;2023-07-20T01:26:27;99451.47;;;25.68;53.17
64792;BME280;51226;47.504;19.074;2023-07-20T01:33:05;99462.03;;;25.72;53.19
64792;BME280;51226;47.504;19.074;2023-07-20T01:36:10;99460.22;;;25.72;53.29
64792;BME280;51226;47.504;19.074;2023-07-20T01:39:13;99459.37;;;25.72;53.43
64792;BME280;51226;47.504;19.074;2023-07-20T01:42:17;99469.09;;;25.73;53.30
64792;BME280;51226;47.504;19.074;2023-07-20T01:45:20;99475.69;;;25.86;53.03
64792;BME280;51226;47.504;19.074;2023-07-20T01:48:22;99478.38;;;25.86;53.14
64792;BME280;51226;47.504;19.074;2023-07-20T01:51:26;99483.97;;;25.80;53.37
64792;BME280;51226;47.504;19.074;2023-07-20T01:54:29;99489.91;;;25.88;53.03
64792;BME280;51226;47.504;19.074;2023-07-20T01:57:32;99484.91;;;25.79;53.25
64792;BME280;51226;47.504;19.074;2023-07-20T02:00:37;99479.72;;;25.74;53.42
64792;BME280;51226;47.504;19.074;2023-07-20T02:03:40;99492.59;;;25.64;53.70
64792;BME280;51226;47.504;19.074;2023-07-20T02:06:42;99485.63;;;25.60;53.75
64792;BME280;51226;47.504;19.074;2023-07-20T02:09:46;99494.25;;;25.67;53.53
64792;BME280;51226;47.504;19.074;2023-07-20T02:12:49;99491.19;;;25.54;53.84
64792;BME280;51226;47.504;19.074;2023-07-20T02:15:52;99497.84;;;25.42;53.93
64792;BME280;51226;47.504;19.074;2023-07-20T02:18:56;99500.94;;;25.31;54.29
64792;BME280;51226;47.504;19.074;2023-07-20T02:21:59;99504.66;;;25.26;54.54
64792;BME280;51226;47.504;19.074;2023-07-20T02:25:06;99509.19;;;25.24;54.75
64792;BME280;51226;47.504;19.074;2023-07-20T02:28:13;99505.66;;;25.23;54.90
64792;BME280;51226;47.504;19.074;2023-07-20T02:31:16;99500.31;;;25.23;55.08
64792;BME280;51226;47.504;19.074;2023-07-20T02:34:19;99503.84;;;25.24;55.17
64792;BME280;51226;47.504;19.074;2023-07-20T02:37:21;99507.47;;;25.23;55.31
64792;BME280;51226;47.504;19.074;2023-07-20T02:40:25;99492.31;;;25.23;55.31
64792;BME280;51226;47.504;19.074;2023-07-20T02:43:27;99502.19;;;25.21;55.39
64792;BME280;51226;47.504;19.074;2023-07-20T02:46:31;99500.25;;;25.25;55.48
64792;BME280;51226;47.504;19.074;2023-07-20T02:49:35;99510.56;;;25.36;54.89
64792;BME280;51226;47.504;19.074;2023-07-20T02:52:38;99513.44;;;25.31;55.22
64792;BME280;51226;47.504;19.074;2023-07-20T02:55:40;99500.94;;;25.31;55.41
64792;BME280;51226;47.504;19.074;2023-07-20T02:58:43;99520.31;;;25.37;55.31
64792;BME280;51226;47.504;19.074;2023-07-20T03:01:48;99515.78;;;25.39;55.22
64792;BME280;51226;47.504;19.074;2023-07-20T03:04:52;99518.34;;;25.42;55.24
64792;BME280;51226;47.504;19.074;2023-07-20T03:07:55;99520.09;;;25.43;54.85
64792;BME280;51226;47.504;19.074;2023-07-20T03:10:59;99524.56;;;25.42;55.01
64792;BME280;51226;47.504;19.074;2023-07-20T03:14:04;99528.97;;;25.43;55.17
64792;BME280;51226;47.504;19.074;2023-07-20T03:17:07;99527.16;;;25.44;55.27
64792;BME280;51226;47.504;19.074;2023-07-20T03:20:11;99524.50;;;25.44;55.16
64792;BME280;51226;47.504;19.074;2023-07-20T03:23:15;99534.66;;;25.34;54.74
64792;BME280;51226;47.504;19.074;2023-07-20T03:26:19;99542.78;;;25.31;54.12
64792;BME280;51226;47.504;19.074;2023-07-20T03:29:24;99541.03;;;25.30;53.62
64792;BME280;51226;47.504;19.074;2023-07-20T03:32:27;99541.16;;;25.27;53.38
64792;BME280;51226;47.504;19.074;2023-07-20T03:35:30;99543.94;;;25.22;53.28
64792;BME280;51226;47.504;19.074;2023-07-20T03:38:33;99545.78;;;25.20;52.79
64792;BME280;51226;47.504;19.074;2023-07-20T03:41:36;99554.72;;;25.19;51.86
64792;BME280;51226;47.504;19.074;2023-07-20T03:44:39;99556.56;;;25.17;51.76
64792;BME280;51226;47.504;19.074;2023-07-20T03:47:42;99553.81;;;25.20;51.23
64792;BME280;51226;47.504;19.074;2023-07-20T03:50:48;99568.66;;;25.29;50.27
64792;BME280;51226;47.504;19.074;2023-07-20T03:53:51;99565.19;;;25.25;50.14
64792;BME280;51226;47.504;19.074;2023-07-20T03:56:54;99568.91;;;25.21;49.81
64792;BME280;51226;47.504;19.074;2023-07-20T03:59:57;99569.72;;;25.23;49.92
64792;BME280;51226;47.504;19.074;2023-07-20T04:03:00;99574.06;;;25.26;49.41
64792;BME280;51226;47.504;19.074;2023-07-20T04:06:04;99579.38;;;25.27;49.03
64792;BME280;51226;47.504;19.074;2023-07-20T04:09:06;99576.59;;;25.30;49.27
64792;BME280;51226;47.504;19.074;2023-07-20T04:12:10;99575.53;;;25.36;49.67
64792;BME280;51226;47.504;19.074;2023-07-20T04:15:13;99573.38;;;25.46;49.57
64792;BME280;51226;47.504;19.074;2023-07-20T04:18:17;99577.19;;;25.39;50.03
64792;BME280;51226;47.504;19.074;2023-07-20T04:21:19;99572.66;;;25.41;49.75
64792;BME280;51226;47.504;19.074;2023-07-20T04:24:22;99570.00;;;25.41;49.74
64792;BME280;51226;47.504;19.074;2023-07-20T04:27:25;99561.19;;;25.39;49.20
64792;BME280;51226;47.504;19.074;2023-07-20T04:30:29;99557.75;;;25.35;49.09
64792;BME280;51226;47.504;19.074;2023-07-20T04:33:34;99555.09;;;25.35;49.05
64792;BME280;51226;47.504;19.074;2023-07-20T04:36:37;99557.69;;;25.37;49.02
64792;BME280;51226;47.504;19.074;2023-07-20T04:39:40;99559.22;;;25.44;48.58
64792;BME280;51226;47.504;19.074;2023-07-20T04:42:43;99557.25;;;25.49;48.72
64792;BME280;51226;47.504;19.074;2023-07-20T04:45:46;99562.59;;;25.49;49.00
64792;BME280;51226;47.504;19.074;2023-07-20T04:48:50;99555.97;;;25.59;48.14
64792;BME280;51226;47.504;19.074;2023-07-20T04:51:53;99561.16;;;25.64;47.95
64792;BME280;51226;47.504;19.074;2023-07-20T04:54:56;99559.00;;;25.74;47.08
64792;BME280;51226;47.504;19.074;2023-07-20T04:58:00;99558.84;;;25.78;46.45
64792;BME280;51226;47.504;19.074;2023-07-20T05:01:04;99564.06;;;25.81;45.92
64792;BME280;51226;47.504;19.074;2023-07-20T05:04:07;99565.72;;;25.84;46.06
64792;BME280;51226;47.504;19.074;2023-07-20T05:07:11;99573.69;;;25.85;45.82
64792;BME280;51226;47.504;19.074;2023-07-20T05:10:13;99576.69;;;26.01;45.39
64792;BME280;51226;47.504;19.074;2023-07-20T05:13:17;99576.84;;;26.20;44.52
64792;BME280;51226;47.504;19.074;2023-07-20T05:16:19;99572.66;;;26.13;45.15
64792;BME280;51226;47.504;19.074;2023-07-20T05:19:24;99574.09;;;26.22;44.44
64792;BME280;51226;47.504;19.074;2023-07-20T05:22:27;99570.75;;;26.17;45.01
64792;BME280;51226;47.504;19.074;2023-07-20T05:25:32;99575.97;;;26.20;44.93
64792;BME280;51226;47.504;19.074;2023-07-20T05:28:35;99577.97;;;26.37;44.31
64792;BME280;51226;47.504;19.074;2023-07-20T05:31:39;99578.66;;;26.42;43.94
64792;BME280;51226;47.504;19.074;2023-07-20T05:34:54;99573.25;;;26.43;43.01
64792;BME280;51226;47.504;19.074;2023-07-20T05:37:57;99573.13;;;26.47;42.74
64792;BME280;51226;47.504;19.074;2023-07-20T05:41:05;99572.00;;;26.52;42.59
64792;BME280;51226;47.504;19.074;2023-07-20T05:44:14;99567.03;;;26.43;43.01
64792;BME280;51226;47.504;19.074;2023-07-20T05:47:21;99587.53;;;26.42;43.78
64792;BME280;51226;47.504;19.074;2023-07-20T05:50:25;99587.25;;;26.50;44.16
64792;BME280;51226;47.504;19.074;2023-07-20T05:53:27;99580.25;;;26.70;43.45
64792;BME280;51226;47.504;19.074;2023-07-20T05:56:32;99581.37;;;26.62;44.03
64792;BME280;51226;47.504;19.074;2023-07-20T05:59:34;99590.34;;;26.84;42.66
64792;BME280;51226;47.504;19.074;2023-07-20T06:02:39;99583.06;;;26.87;42.40
64792;BME280;51226;47.504;19.074;2023-07-20T06:05:42;99579.53;;;26.87;42.11
64792;BME280;51226;47.504;19.074;2023-07-20T06:08:46;99582.94;;;26.90;42.78
64792;BME280;51226;47.504;19.074;2023-07-20T06:11:49;99584.91;;;27.07;41.19
64792;BME280;51226;47.504;19.074;2023-07-20T06:14:52;99587.50;;;27.09;41.28
64792;BME280;51226;47.504;19.074;2023-07-20T06:17:56;99587.88;;;26.99;42.68
64792;BME280;51226;47.504;19.074;2023-07-20T06:21:01;99592.19;;;27.24;41.76
64792;BME280;51226;47.504;19.074;2023-07-20T06:24:05;99597.78;;;27.40;41.73
64792;BME280;51226;47.504;19.074;2023-07-20T06:27:08;99600.47;;;27.40;42.38
64792;BME280;51226;47.504;19.074;2023-07-20T06:30:11;99610.63;;;27.52;42.35
64792;BME280;51226;47.504;19.074;2023-07-20T06:33:14;99609.00;;;27.69;41.86
64792;BME280;51226;47.504;19.074;2023-07-20T06:36:18;99614.44;;;27.86;41.57
64792;BME280;51226;47.504;19.074;2023-07-20T06:39:21;99621.97;;;27.99;41.05
64792;BME280;51226;47.504;19.074;2023-07-20T06:42:28;99622.69;;;28.02;41.22
64792;BME280;51226;47.504;19.074;2023-07-20T06:45:52;99620.87;;;28.03;41.30
64792;BME280;51226;47.504;19.074;2023-07-20T06:48:58;99627.34;;;28.18;41.20
64792;BME280;51226;47.504;19.074;2023-07-20T06:52:04;99623.91;;;28.33;40.67
64792;BME280;51226;47.504;19.074;2023-07-20T06:55:07;99634.72;;;28.51;40.25
64792;BME280;51226;47.504;19.074;2023-07-20T06:58:13;99645.78;;;28.63;40.62
64792;BME280;51226;47.504;19.074;2023-07-20T07:01:16;99650.63;;;28.92;39.37
64792;BME280;51226;47.504;19.074;2023-07-20T07:04:20;99641.31;;;29.35;39.57
64792;BME280;51226;47.504;19.074;2023-07-20T07:07:23;99646.38;;;29.75;38.96
64792;BME280;51226;47.504;19.074;2023-07-20T07:10:29;99645.31;;;29.79;35.85
64792;BME280;51226;47.504;19.074;2023-07-20T07:13:33;99647.84;;;29.82;35.04
64792;BME280;51226;47.504;19.074;2023-07-20T07:16:37;99649.81;;;29.79;36.36
64792;BME280;51226;47.504;19.074;2023-07-20T07:19:41;99656.47;;;30.05;34.54
64792;BME280;51226;47.504;19.074;2023-07-20T07:22:44;99661.59;;;30.09;35.48
64792;BME280;51226;47.504;19.074;2023-07-20T07:25:48;99656.16;;;30.27;35.29
64792;BME280;51226;47.504;19.074;2023-07-20T07:28:51;99657.69;;;30.48;33.94
64792;BME280;51226;47.504;19.074;2023-07-20T07:31:57;99658.28;;;30.70;34.61
64792;BME280;51226;47.504;19.074;2023-07-20T07:35:00;99666.88;;;31.08;32.79
64792;BME280;51226;47.504;19.074;2023-07-20T07:38:03;99654.41;;;31.21;34.21
64792;BME280;51226;47.504;19.074;2023-07-20T07:41:27;99652.84;;;31.48;33.19
64792;BME280;51226;47.504;19.074;2023-07-20T07:44:30;99654.62;;;31.77;32.19
64792;BME280;51226;47.504;19.074;2023-07-20T07:47:33;99657.44;;;32.05;32.53
64792;BME280;51226;47.504;19.074;2023-07-20T07:50:36;99653.56;;;32.38;30.70
64792;BME280;51226;47.504;19.074;2023-07-20T07:53:39;99650.78;;;32.68;30.01
64792;BME280;51226;47.504;19.074;2023-07-20T07:56:42;99648.16;;;32.66;30.79
64792;BME280;51226;47.504;19.074;2023-07-20T07:59:47;99650.59;;;32.84;30.59
64792;BME280;51226;47.504;19.074;2023-07-20T08:02:50;99665.69;;;33.01;30.59
64792;BME280;51226;47.504;19.074;2023-07-20T08:05:54;99665.81;;;33.39;28.74
64792;BME280;51226;47.504;19.074;2023-07-20T08:09:01;99667.81;;;33.76;28.47
64792;BME280;51226;47.504;19.074;2023-07-20T08:12:05;99654.72;;;34.21;28.50
64792;BME280;51226;47.504;19.074;2023-07-20T08:15:11;99667.50;;;34.69;26.65
64792;BME280;51226;47.504;19.074;2023-07-20T08:18:14;99668.19;;;34.97;26.40
64792;BME280;51226;47.504;19.074;2023-07-20T08:21:17;99667.63;;;35.16;26.04
64792;BME280;51226;47.504;19.074;2023-07-20T08:24:20;99663.34;;;35.49;25.28
64792;BME280;51226;47.504;19.074;2023-07-20T08:27:23;99662.38;;;35.61;26.02
64792;BME280;51226;47.504;19.074;2023-07-20T08:30:26;99663.31;;;36.07;24.66
64792;BME280;51226;47.504;19.074;2023-07-20T08:33:28;99667.75;;;36.42;24.67
64792;BME280;51226;47.504;19.074;2023-07-20T08:36:36;99654.88;;;36.66;23.97
64792;BME280;51226;47.504;19.074;2023-07-20T08:39:39;99668.47;;;37.10;23.40
64792;BME280;51226;47.504;19.074;2023-07-20T08:42:43;99661.03;;;37.66;23.83
64792;BME280;51226;47.504;19.074;2023-07-20T08:45:47;99664.13;;;38.34;22.74
64792;BME280;51226;47.504;19.074;2023-07-20T08:48:52;99662.59;;;38.91;21.09
64792;BME280;51226;47.504;19.074;2023-07-20T08:51:55;99677.97;;;39.12;22.25
64792;BME280;51226;47.504;19.074;2023-07-20T08:54:58;99670.22;;;39.37;20.90
64792;BME280;51226;47.504;19.074;2023-07-20T08:58:02;99665.91;;;39.54;20.84
64792;BME280;51226;47.504;19.074;2023-07-20T09:01:07;99671.31;;;38.85;21.41
64792;BME280;51226;47.504;19.074;2023-07-20T09:04:10;99673.28;;;37.71;22.81
64792;BME280;51226;47.504;19.074;2023-07-20T09:07:14;99678.88;;;36.72;23.58
64792;BME280;51226;47.504;19.074;2023-07-20T09:10:20;99685.53;;;36.01;24.41
64792;BME280;51226;47.504;19.074;2023-07-20T09:13:25;99681.22;;;36.21;24.61
64792;BME280;51226;47.504;19.074;2023-07-20T09:16:28;99684.91;;;36.20;24.17
64792;BME280;51226;47.504;19.074;2023-07-20T09:19:33;99681.81;;;37.13;23.56
64792;BME280;51226;47.504;19.074;2023-07-20T09:22:37;99688.41;;;37.85;22.60
64792;BME280;51226;47.504;19.074;2023-07-20T09:25:44;99685.62;;;37.75;22.37
64792;BME280;51226;47.504;19.074;2023-07-20T09:28:52;99698.78;;;37.05;22.81
64792;BME280;51226;47.504;19.074;2023-07-20T09:35:03;99684.66;;;35.53;24.16
64792;BME280;51226;47.504;19.074;2023-07-20T09:38:10;99701.38;;;34.87;24.49
64792;BME280;51226;47.504;19.074;2023-07-20T09:41:15;99694.03;;;34.27;25.23
64792;BME280;51226;47.504;19.074;2023-07-20T09:44:24;99691.75;;;33.69;26.11
64792;BME280;51226;47.504;19.074;2023-07-20T09:47:29;99690.78;;;33.30;26.82
64792;BME280;51226;47.504;19.074;2023-07-20T09:50:34;99687.09;;;33.31;26.92
64792;BME280;51226;47.504;19.074;2023-07-20T09:53:41;99692.94;;;33.25;27.26
64792;BME280;51226;47.504;19.074;2023-07-20T09:56:45;99683.78;;;33.13;27.88
64792;BME280;51226;47.504;19.074;2023-07-20T09:59:49;99683.53;;;33.03;27.79
64792;BME280;51226;47.504;19.074;2023-07-20T10:02:54;99679.00;;;33.04;27.18
64792;BME280;51226;47.504;19.074;2023-07-20T10:06:21;99685.81;;;32.82;27.47
64792;BME280;51226;47.504;19.074;2023-07-20T10:09:26;99689.75;;;32.91;27.11
64792;BME280;51226;47.504;19.074;2023-07-20T10:12:30;99691.47;;;33.47;26.94
64792;BME280;51226;47.504;19.074;2023-07-20T10:15:36;99701.78;;;35.18;26.81
64792;BME280;51226;47.504;19.074;2023-07-20T10:19:03;99695.09;;;35.71;25.08
64792;BME280;51226;47.504;19.074;2023-07-20T10:22:26;99690.09;;;35.42;24.07
64792;BME280;51226;47.504;19.074;2023-07-20T10:25:30;99687.75;;;34.76;25.40
64792;BME280;51226;47.504;19.074;2023-07-20T10:28:34;99697.50;;;34.42;25.47
64792;BME280;51226;47.504;19.074;2023-07-20T10:31:39;99690.78;;;33.96;26.20
64792;BME280;51226;47.504;19.074;2023-07-20T10:34:42;99690.63;;;34.62;25.36
64792;BME280;51226;47.504;19.074;2023-07-20T10:37:50;99687.56;;;35.28;23.98
64792;BME280;51226;47.504;19.074;2023-07-20T10:40:54;99695.69;;;35.28;23.89
64792;BME280;51226;47.504;19.074;2023-07-20T10:44:02;99690.19;;;35.16;24.53
64792;BME280;51226;47.504;19.074;2023-07-20T10:47:11;99682.44;;;35.47;23.93
64792;BME280;51226;47.504;19.074;2023-07-20T10:50:15;99680.44;;;35.38;23.97
64792;BME280;51226;47.504;19.074;2023-07-20T10:53:18;99686.03;;;34.99;24.79
64792;BME280;51226;47.504;19.074;2023-07-20T10:56:22;99684.88;;;34.54;25.49
64792;BME280;51226;47.504;19.074;2023-07-20T11:02:41;99686.34;;;33.95;24.96
64792;BME280;51226;47.504;19.074;2023-07-20T11:05:45;99682.81;;;33.54;25.85
64792;BME280;51226;47.504;19.074;2023-07-20T11:08:47;99694.25;;;33.32;26.54
64792;BME280;51226;47.504;19.074;2023-07-20T11:12:12;99672.50;;;33.34;26.15
64792;BME280;51226;47.504;19.074;2023-07-20T11:15:19;99681.22;;;33.24;26.25
64792;BME280;51226;47.504;19.074;2023-07-20T11:18:25;99687.87;;;33.33;25.32
64792;BME280;51226;47.504;19.074;2023-07-20T11:21:29;99681.28;;;33.37;25.59
64792;BME280;51226;47.504;19.074;2023-07-20T11:24:33;99682.78;;;33.82;25.34
64792;BME280;51226;47.504;19.074;2023-07-20T11:27:45;99674.22;;;34.76;24.40
64792;BME280;51226;47.504;19.074;2023-07-20T11:30:50;99679.47;;;35.39;23.60
64792;BME280;51226;47.504;19.074;2023-07-20T11:33:54;99671.69;;;36.60;22.22
64792;BME280;51226;47.504;19.074;2023-07-20T11:37:13;99677.03;;;37.59;21.14
64792;BME280;51226;47.504;19.074;2023-07-20T11:40:16;99674.50;;;38.40;20.46
64792;BME280;51226;47.504;19.074;2023-07-20T11:43:20;99677.66;;;38.96;20.20
64792;BME280;51226;47.504;19.074;2023-07-20T11:46:27;99678.72;;;39.53;19.52
64792;BME280;51226;47.504;19.074;2023-07-20T11:49:36;99667.16;;;39.79;19.34
64792;BME280;51226;47.504;19.074;2023-07-20T11:52:40;99666.94;;;40.10;17.97
64792;BME280;51226;47.504;19.074;2023-07-20T11:55:43;99680.34;;;39.93;18.33
64792;BME280;51226;47.504;19.074;2023-07-20T11:58:48;99676.44;;;40.06;18.08
64792;BME280;51226;47.504;19.074;2023-07-20T12:01:52;99658.63;;;40.01;18.90
64792;BME280;51226;47.504;19.074;2023-07-20T12:04:56;99657.56;;;40.12;18.40
64792;BME280;51226;47.504;19.074;2023-07-20T12:08:00;99660.75;;;40.08;18.65
64792;BME280;51226;47.504;19.074;2023-07-20T12:11:03;99656.81;;;39.73;18.39
64792;BME280;51226;47.504;19.074;2023-07-20T12:14:07;99653.53;;;39.59;19.20
64792;BME280;51226;47.504;19.074;2023-07-20T12:17:19;99647.75;;;39.72;19.38
64792;BME280;51226;47.504;19.074;2023-07-20T12:23:39;99647.84;;;39.90;18.65
64792;BME280;51226;47.504;19.074;2023-07-20T12:26:43;99639.66;;;39.90;18.46
64792;BME280;51226;47.504;19.074;2023-07-20T12:29:46;99649.56;;;39.91;18.77
64792;BME280;51226;47.504;19.074;2023-07-20T12:32:50;99635.03;;;40.00;18.28
64792;BME280;51226;47.504;19.074;2023-07-20T12:35:54;99649.28;;;39.84;18.62
64792;BME280;51226;47.504;19.074;2023-07-20T12:38:59;99640.38;;;39.92;18.18
64792;BME280;51226;47.504;19.074;2023-07-20T12:42:02;99648.28;;;39.86;18.76
64792;BME280;51226;47.504;19.074;2023-07-20T12:45:05;99634.66;;;39.76;17.16
64792;BME280;51226;47.504;19.074;2023-07-20T12:48:09;99652.81;;;39.57;16.89
64792;BME280;51226;47.504;19.074;2023-07-20T12:51:12;99638.78;;;39.13;17.71
64792;BME280;51226;47.504;19.074;2023-07-20T12:54:15;99646.78;;;38.95;17.96
64792;BME280;51226;47.504;19.074;2023-07-20T12:57:18;99646.34;;;38.80;18.70
64792;BME280;51226;47.504;19.074;2023-07-20T13:00:21;99638.44;;;38.67;18.49
64792;BME280;51226;47.504;19.074;2023-07-20T13:03:27;99637.66;;;38.55;19.31
64792;BME280;51226;47.504;19.074;2023-07-20T13:06:33;99635.53;;;38.59;18.69
64792;BME280;51226;47.504;19.074;2023-07-20T13:09:38;99638.22;;;38.40;18.48
64792;BME280;51226;47.504;19.074;2023-07-20T13:12:42;99638.91;;;38.32;18.29
64792;BME280;51226;47.504;19.074;2023-07-20T13:15:45;99638.31;;;38.28;18.30
64792;BME280;51226;47.504;19.074;2023-07-20T13:18:49;99649.81;;;38.11;18.61
64792;BME280;51226;47.504;19.074;2023-07-20T13:21:52;99641.47;;;37.93;18.56
64792;BME280;51226;47.504;19.074;2023-07-20T13:24:55;99630.66;;;37.81;18.85
64792;BME280;51226;47.504;19.074;2023-07-20T13:27:58;99647.44;;;37.66;19.07
64792;BME280;51226;47.504;19.074;2023-07-20T13:31:00;99636.69;;;37.43;19.27
64792;BME280;51226;47.504;19.074;2023-07-20T13:34:03;99634.09;;;37.20;19.63
64792;BME280;51226;47.504;19.074;2023-07-20T13:37:10;99634.56;;;36.93;20.07
64792;BME280;51226;47.504;19.074;2023-07-20T13:40:16;99640.50;;;36.87;19.95
64792;BME280;51226;47.504;19.074;2023-07-20T13:43:21;99636.84;;;36.77;20.01
64792;BME280;51226;47.504;19.074;2023-07-20T13:46:24;99631.94;;;36.59;20.50
64792;BME280;51226;47.504;19.074;2023-07-20T13:49:29;99636.66;;;36.57;20.35
64792;BME280;51226;47.504;19.074;2023-07-20T13:52:47;99627.13;;;36.51;20.54
64792;BME280;51226;47.504;19.074;2023-07-20T13:55:50;99623.19;;;36.44;20.35
64792;BME280;51226;47.504;19.074;2023-07-20T13:58:58;99629.25;;;36.25;21.04
64792;BME280;51226;47.504;19.074;2023-07-20T14:02:03;99618.41;;;36.14;21.07
64792;BME280;51226;47.504;19.074;2023-07-20T14:05:11;99620.50;;;35.99;21.30
64792;BME280;51226;47.504;19.074;2023-07-20T14:08:22;99618.41;;;35.91;21.17
64792;BME280;51226;47.504;19.074;2023-07-20T14:11:26;99626.87;;;35.64;21.65
64792;BME280;51226;47.504;19.074;2023-07-20T14:14:31;99627.47;;;35.56;21.52
64792;BME280;51226;47.504;19.074;2023-07-20T14:17:35;99614.59;;;35.36;21.84
64792;BME280;51226;47.504;19.074;2023-07-20T14:20:39;99621.19;;;35.20;22.02
64792;BME280;51226;47.504;19.074;2023-07-20T14:23:47;99626.69;;;35.07;22.28
64792;BME280;51226;47.504;19.074;2023-07-20T14:26:49;99611.50;;;35.05;21.97
64792;BME280;51226;47.504;19.074;2023-07-20T14:29:54;99623.81;;;34.98;21.99
64792;BME280;51226;47.504;19.074;2023-07-20T14:32:58;99638.59;;;34.94;21.46
64792;BME280;51226;47.504;19.074;2023-07-20T14:36:02;99636.16;;;34.78;21.42
64792;BME280;51226;47.504;19.074;2023-07-20T14:39:06;99644.25;;;34.54;22.11
64792;BME280;51226;47.504;19.074;2023-07-20T14:42:09;99640.94;;;34.37;22.54
64792;BME280;51226;47.504;19.074;2023-07-20T14:45:12;99630.44;;;34.32;22.70
64792;BME280;51226;47.504;19.074;2023-07-20T14:48:15;99628.28;;;34.25;22.79
64792;BME280;51226;47.504;19.074;2023-07-20T14:51:18;99617.25;;;34.15;22.80
64792;BME280;51226;47.504;19.074;2023-07-20T14:54:21;99631.34;;;34.07;22.85
64792;BME280;51226;47.504;19.074;2023-07-20T14:57:24;99627.25;;;33.89;22.89
64792;BME280;51226;47.504;19.074;2023-07-20T15:00:27;99628.00;;;33.65;23.37
64792;BME280;51226;47.504;19.074;2023-07-20T15:03:30;99625.50;;;33.62;23.57
64792;BME280;51226;47.504;19.074;2023-07-20T15:06:36;99622.69;;;33.64;23.38
64792;BME280;51226;47.504;19.074;2023-07-20T15:09:39;99621.06;;;33.48;23.46
64792;BME280;51226;47.504;19.074;2023-07-20T15:12:42;99632.09;;;33.45;23.50
64792;BME280;51226;47.504;19.074;2023-07-20T15:15:45;99623.06;;;33.19;24.03
64792;BME280;51226;47.504;19.074;2023-07-20T15:18:49;99619.87;;;33.12;24.15
64792;BME280;51226;47.504;19.074;2023-07-20T15:21:51;99632.25;;;32.89;24.68
64792;BME280;51226;47.504;19.074;2023-07-20T15:24:54;99628.22;;;32.82;24.92
64792;BME280;51226;47.504;19.074;2023-07-20T15:27:57;99627.31;;;32.68;25.09
64792;BME280;51226;47.504;19.074;2023-07-20T15:31:02;99628.69;;;32.61;25.20
64792;BME280;51226;47.504;19.074;2023-07-20T15:34:05;99615.28;;;32.60;25.14
64792;BME280;51226;47.504;19.074;2023-07-20T15:37:10;99623.97;;;32.50;25.40
64792;BME280;51226;47.504;19.074;2023-07-20T15:40:12;99619.78;;;32.18;25.61
64792;BME280;51226;47.504;19.074;2023-07-20T15:43:16;99626.78;;;32.06;25.71
64792;BME280;51226;47.504;19.074;2023-07-20T15:49:37;99625.94;;;31.76;26.54
64792;BME280;51226;47.504;19.074;2023-07-20T15:52:40;99627.31;;;31.69;26.46
64792;BME280;51226;47.504;19.074;2023-07-20T15:55:44;99629.78;;;31.72;26.37
64792;BME280;51226;47.504;19.074;2023-07-20T15:58:47;99622.97;;;31.81;25.75
64792;BME280;51226;47.504;19.074;2023-07-20T16:01:51;99627.66;;;31.63;26.23
64792;BME280;51226;47.504;19.074;2023-07-20T16:04:56;99633.56;;;31.39;26.49
64792;BME280;51226;47.504;19.074;2023-07-20T16:07:59;99631.69;;;31.26;26.80
64792;BME280;51226;47.504;19.074;2023-07-20T16:11:02;99625.44;;;31.25;26.92
64792;BME280;51226;47.504;19.074;2023-07-20T16:14:06;99626.78;;;31.18;27.13
64792;BME280;51226;47.504;19.074;2023-07-20T16:17:09;99626.78;;;31.18;26.84
64792;BME280;51226;47.504;19.074;2023-07-20T16:20:12;99631.00;;;31.22;26.87
64792;BME280;51226;47.504;19.074;2023-07-20T16:23:15;99629.00;;;31.26;25.97
64792;BME280;51226;47.504;19.074;2023-07-20T16:26:18;99629.53;;;30.86;26.84
64792;BME280;51226;47.504;19.074;2023-07-20T16:29:25;99638.59;;;30.69;27.48